Flight Track Log - Related Links

Times and Time Zones

All times are in EDT time to prevent confusion due to time zone crossing. See the KAP927 flight status page for this flight to view local times or setup timezone preferences in your user account.

Time Position Orientation Groundspeed Altitude Reporting Facility
EDT Latitude Longitude Course Direction KTS MPH feet Rate Location/Type
08:29AM 42.7494 -73.7378 101° East 116 133 2,000  Level Boston Center
08:30AM 42.7436 -73.6953 101° East 118 136 2,600 645 Climbing Boston Center
08:31AM 42.7378 -73.6556 101° East 114 131 3,300 694 Climbing Boston Center
08:32AM 42.7319 -73.6131 101° East 110 127 4,000 595 Climbing Boston Center
08:33AM 42.7242 -73.5706 104° East 119 137 4,500 496 Climbing Boston Center
08:34AM 42.7183 -73.5253 100° East 123 142 5,000 492 Climbing Boston Center
08:35AM 42.7144 -73.4800 97° East 129 148 5,500 560 Climbing Boston Center
08:37AM 42.6989 -73.3753 101° East 133 153 6,700 570 Climbing Boston Center
08:38AM 42.6906 -73.3411 108° East 132 152 7,000 492 Climbing Boston Center
08:38AM 42.6908 -73.3242 89° East 134 154 7,200 500 Climbing Boston Center
08:39AM 42.6847 -73.2931 105° East 132 152 7,500 188 Climbing Boston Center
08:40AM 42.6769 -73.2392 101° East 160 184 7,500  Level Boston Center
08:41AM 42.6753 -73.1800 92° East 160 184 7,500  Level Boston Center
08:42AM 42.6672 -73.1233 101° East 155 178 7,500  Level Boston Center
08:43AM 42.6592 -73.0669 101° East 155 178 7,500  Level Boston Center
08:44AM 42.6511 -73.0103 101° East 155 178 7,500  Level Boston Center
08:45AM 42.6453 -72.9508 98° East 160 184 7,500  Level Boston Center
08:46AM 42.6369 -72.8944 101° East 160 184 7,500  Level Boston Center
08:47AM 42.6311 -72.8381 98° East 160 184 7,500  Level Boston Center
08:48AM 42.6228 -72.7786 101° East 160 184 7,500  Level Boston Center
08:49AM 42.6147 -72.7250 102° East 160 184 7,500  Level Boston Center
08:50AM 42.6044 -72.6631 103° East 155 178 7,500  Level Boston Center
08:51AM 42.6003 -72.6064 96° East 155 178 7,500  Level Boston Center
08:52AM 42.5922 -72.5500 101° East 155 178 7,500  Level Boston Center
08:53AM 42.5839 -72.4936 101° East 155 178 7,500  Level Boston Center
08:54AM 42.5756 -72.4372 101° East 150 173 7,500  Level Boston Center
08:55AM 42.5672 -72.3836 102° East 150 173 7,500  Level Boston Center
08:56AM 42.5586 -72.3244 101° East 150 173 7,500  Level Boston Center
08:57AM 42.5483 -72.2625 103° East 150 173 7,500  Level Boston Center
08:58AM 42.5419 -72.2147 100° East 138 159 7,500 -50 Level Boston Center
08:59AM 42.5356 -72.1667 100° East 143 165 7,400 -50 Descending Boston Center
09:00AM 42.5269 -72.1019 100° East 143 165 7,400  Level Boston Center
09:01AM 42.5206 -72.0542 100° East 143 165 7,400 50 Level Boston Center
09:02AM 42.5119 -71.9922 101° East 143 165 7,500  Climbing Boston Center
09:03AM 42.5036 -71.9417 103° East 143 165 7,400 -50 Descending Boston Center
09:04AM 42.4950 -71.8825 101° East 143 165 7,400 -200 Level Boston Center
09:05AM 42.4864 -71.8292 102° East 143 165 7,000 -350 Descending Boston Center
09:06AM 42.4775 -71.7672 101° East 149 171 6,700 -500 Descending Boston Center
09:07AM 42.4711 -71.7139 99° East 149 171 6,000 -650 Descending Boston Center
09:08AM 42.4644 -71.6492 98° East 155 178 5,400 -300 Descending Boston Center
09:09AM 42.4556 -71.5986 103° East 155 178 5,400 1,050 Level Boston Center
09:10AM 42.4511 -71.5481 97° East 155 178 7,500 1,050 Climbing Boston Center
09:11AM 42.4444 -71.5003 101° East 155 178 7,500  Level Boston Center
09:12AM 42.4400 -71.4611 99° East 155 178 7,500  Level Boston Center
09:13AM 42.4397 -71.4497 92° East 155 178 7,500  Level Boston Center
09:14AM 42.4397 -71.4497 324° Northwest 155 178 7,500 -2,031 Level Boston Center
09:15AM 42.4833 -71.2500 73° East 153 176 3,100 -2,077 Descending KA90
09:16AM 42.4833 -71.2000 90° East 153 176 3,000 -100 Descending KA90
09:17AM 42.4667 -71.1500 114° Southeast 154 177 2,900 -400 Descending KA90
09:18AM 42.4333 -71.1000 132° Southeast 174 200 2,200 -800 Descending KA90
09:19AM 42.4000 -71.0500 132° Southeast 176 203 1,300 -750 Descending KA90
09:20AM 42.3667 -71.0500 180° South 142 163 700 -526 Descending KA90
09:21AM 42.3500 -71.0167 124° Southeast 109 125 300 -444 Descending KA90
09:23AM 42.3500 -71.0000 270° West  Level FlightAware Approximate
09:30AM 42.3630 -71.0064 270° West  Level Estimated

Login

Don't have an account? Register now (free) for customized features, flight alerts, and more!